Time;durP1;ratioP1;P1;durP2;ratioP2;P2;SDS_P1;SDS_P2;PMS_P1;PMS_P2;Temp;Humidity;BMP_temperature;BMP_pressure;BME280_temperature;BME280_humidity;BME280_pressure;Samples;Min_cycle;Max_cycle;Signal;HPM_P1;HPM_P2
2021/04/01 00:00:16;;;;;;;12.50;6.70;;;13.30;1.00;;;;;;5085008;28;20044;-67
2021/04/01 00:02:46;;;;;;;11.85;6.93;;;13.10;1.00;;;;;;5078179;28;20074;-68
2021/04/01 00:05:13;;;;;;;11.88;6.43;;;13.10;1.00;;;;;;5084470;28;20062;-68
2021/04/01 00:07:40;;;;;;;10.38;6.68;;;13.00;1.00;;;;;;5084964;28;20452;-68
2021/04/01 00:10:10;;;;;;;10.80;6.60;;;12.90;1.00;;;;;;5086582;28;20493;-67
2021/04/01 00:12:38;;;;;;;11.43;6.53;;;12.60;1.00;;;;;;5079013;28;20517;-67
2021/04/01 00:15:07;;;;;;;11.75;7.10;;;12.40;1.00;;;;;;5086514;28;20067;-69
2021/04/01 00:17:34;;;;;;;12.38;7.05;;;12.30;1.00;;;;;;5083947;28;20123;-69
2021/04/01 00:20:01;;;;;;;12.05;6.53;;;12.30;1.00;;;;;;5086726;28;20050;-67
2021/04/01 00:22:28;;;;;;;12.13;7.00;;;12.20;1.00;;;;;;5079394;28;20056;-67
2021/04/01 00:24:55;;;;;;;14.63;7.30;;;12.20;1.00;;;;;;5083799;28;20492;-68
2021/04/01 00:27:22;;;;;;;12.77;7.47;;;12.40;1.00;;;;;;5087706;28;20044;-68
2021/04/01 00:29:50;;;;;;;14.25;7.20;;;12.20;1.00;;;;;;5090131;28;20220;-69
2021/04/01 00:32:17;;;;;;;17.55;7.45;;;12.20;1.00;;;;;;5084837;28;20045;-68
2021/04/01 00:34:44;;;;;;;14.65;8.13;;;12.30;1.00;;;;;;5087332;28;20048;-68
2021/04/01 00:37:11;;;;;;;13.55;8.07;;;12.30;1.00;;;;;;5089949;28;20050;-68
2021/04/01 00:39:38;;;;;;;14.30;6.65;;;12.30;1.00;;;;;;5089091;28;20067;-67
2021/04/01 00:42:07;;;;;;;12.55;7.38;;;12.50;1.00;;;;;;5084888;28;20044;-70
2021/04/01 00:44:35;;;;;;;13.57;7.07;;;12.40;1.00;;;;;;5086309;28;20469;-68
2021/04/01 00:47:07;;;;;;;10.75;7.07;;;12.40;1.00;;;;;;5088886;28;20129;-68
2021/04/01 00:49:34;;;;;;;21.35;7.40;;;12.30;1.00;;;;;;5088912;28;20048;-69
2021/04/01 00:52:01;;;;;;;14.43;7.32;;;12.20;1.00;;;;;;5062598;28;20044;-69
2021/04/01 00:54:28;;;;;;;15.02;6.75;;;12.30;1.00;;;;;;5082790;28;20155;-69
2021/04/01 00:56:56;;;;;;;11.32;6.82;;;12.20;1.00;;;;;;5088512;28;20561;-69
2021/04/01 00:59:25;;;;;;;11.63;6.68;;;12.40;1.00;;;;;;5089409;28;20045;-68
2021/04/01 01:01:54;;;;;;;13.20;6.88;;;12.30;1.00;;;;;;5086460;28;20056;-68
2021/04/01 01:04:23;;;;;;;10.20;6.50;;;12.30;1.00;;;;;;5087455;28;20052;-68
2021/04/01 01:06:50;;;;;;;14.32;6.60;;;12.30;1.00;;;;;;5089017;28;20040;-68
2021/04/01 01:09:17;;;;;;;11.63;6.88;;;12.30;1.00;;;;;;5090252;28;20094;-69
2021/04/01 01:11:44;;;;;;;15.73;7.28;;;12.30;1.00;;;;;;5088860;28;20147;-69
2021/04/01 01:14:11;;;;;;;15.30;7.60;;;12.30;1.00;;;;;;5086521;28;20048;-68
2021/04/01 01:16:38;;;;;;;15.85;7.32;;;12.30;1.00;;;;;;5087259;28;20131;-68
2021/04/01 01:19:06;;;;;;;15.70;7.15;;;12.10;1.00;;;;;;5088941;28;20417;-69
2021/04/01 01:21:34;;;;;;;16.15;7.43;;;12.10;1.00;;;;;;5086011;28;20048;-69
2021/04/01 01:24:03;;;;;;;14.02;7.50;;;12.00;1.00;;;;;;5086786;28;20052;-68
2021/04/01 01:26:31;;;;;;;14.32;7.35;;;12.20;1.00;;;;;;5089538;28;20044;-68
2021/04/01 01:28:59;;;;;;;14.07;7.85;;;12.20;1.00;;;;;;5089133;28;20047;-69
2021/04/01 01:31:25;;;;;;;14.93;7.40;;;12.20;1.00;;;;;;5088914;28;20063;-68
2021/04/01 01:33:56;;;;;;;15.40;7.70;;;12.20;1.00;;;;;;5088101;28;20130;-68
2021/04/01 01:36:23;;;;;;;11.77;7.15;;;12.10;1.00;;;;;;5089340;28;20130;-68
2021/04/01 01:38:49;;;;;;;14.85;7.85;;;12.10;1.00;;;;;;5088651;28;20040;-68
2021/04/01 01:41:16;;;;;;;15.68;7.32;;;12.20;1.00;;;;;;5090276;28;20048;-69
2021/04/01 01:43:45;;;;;;;15.55;8.27;;;12.10;1.00;;;;;;5084694;28;20044;-68
2021/04/01 01:46:12;;;;;;;13.63;8.20;;;12.10;1.00;;;;;;5088891;28;20040;-69
2021/04/01 01:48:39;;;;;;;15.00;8.23;;;12.10;1.00;;;;;;5088830;28;20055;-68
2021/04/01 01:51:06;;;;;;;12.80;7.65;;;12.00;1.00;;;;;;5088822;28;20040;-69
2021/04/01 01:53:33;;;;;;;18.13;9.00;;;12.00;1.00;;;;;;5086473;28;20044;-68
2021/04/01 01:56:00;;;;;;;20.17;8.50;;;12.00;1.00;;;;;;5088326;28;20059;-67
2021/04/01 01:58:26;;;;;;;16.20;8.30;;;11.90;1.00;;;;;;5088236;28;20047;-68
2021/04/01 02:00:56;;;;;;;16.73;8.85;;;11.80;1.00;;;;;;5089037;28;20046;-67
2021/04/01 02:03:24;;;;;;;19.20;8.13;;;11.80;1.00;;;;;;5083845;28;20413;-68
2021/04/01 02:05:52;;;;;;;13.27;8.27;;;11.90;1.00;;;;;;5087083;28;20048;-68
2021/04/01 02:08:19;;;;;;;19.33;8.48;;;11.80;1.00;;;;;;5089521;28;20052;-67
2021/04/01 02:10:48;;;;;;;18.08;8.35;;;11.60;1.00;;;;;;5088721;28;20452;-67
2021/04/01 02:13:17;;;;;;;13.65;8.15;;;11.60;1.00;;;;;;5084816;28;20136;-68
2021/04/01 02:15:47;;;;;;;20.25;9.18;;;11.50;1.00;;;;;;5085699;28;20131;-68
2021/04/01 02:18:17;;;;;;;19.63;8.30;;;11.50;1.00;;;;;;5088432;28;20047;-67
2021/04/01 02:20:46;;;;;;;13.68;8.15;;;11.50;1.00;;;;;;5088410;28;20555;-68
2021/04/01 02:23:15;;;;;;;13.82;8.73;;;11.50;1.00;;;;;;5085367;28;20047;-67
2021/04/01 02:25:44;;;;;;;16.98;8.63;;;11.50;1.00;;;;;;5085585;28;20048;-68
2021/04/01 02:28:12;;;;;;;14.98;8.32;;;11.50;1.00;;;;;;5086762;28;20056;-68
2021/04/01 02:30:41;;;;;;;19.40;8.23;;;11.50;1.00;;;;;;5088146;28;20052;-67
2021/04/01 02:33:08;;;;;;;14.95;8.00;;;11.60;1.00;;;;;;5084382;28;20134;-68
2021/04/01 02:35:37;;;;;;;14.30;7.85;;;11.50;1.00;;;;;;5086687;28;20050;-68
2021/04/01 02:38:04;;;;;;;15.15;7.90;;;11.40;1.00;;;;;;5088647;28;20130;-68
2021/04/01 02:40:32;;;;;;;12.73;8.10;;;11.30;1.00;;;;;;5088196;28;20051;-68
2021/04/01 02:42:59;;;;;;;14.10;8.70;;;11.20;1.00;;;;;;5083725;28;20058;-69
2021/04/01 02:45:26;;;;;;;17.92;8.35;;;11.30;1.00;;;;;;5086089;28;20055;-68
2021/04/01 02:47:53;;;;;;;13.18;8.55;;;11.40;1.00;;;;;;5088547;28;20044;-68
2021/04/01 02:50:20;;;;;;;14.80;8.20;;;11.40;1.00;;;;;;5086546;28;20070;-67
2021/04/01 02:52:48;;;;;;;12.90;7.47;;;11.30;1.00;;;;;;5083198;28;20082;-68
2021/04/01 02:55:15;;;;;;;16.73;8.57;;;11.30;1.00;;;;;;5085701;28;20059;-68
2021/04/01 02:57:43;;;;;;;19.25;8.32;;;11.40;1.00;;;;;;5086851;28;20040;-68
2021/04/01 03:00:14;;;;;;;13.50;8.10;;;11.40;1.00;;;;;;5085372;28;20052;-68
2021/04/01 03:02:44;;;;;;;15.70;8.27;;;11.30;1.00;;;;;;5083581;28;20492;-68
2021/04/01 03:05:12;;;;;;;19.13;8.85;;;11.30;1.00;;;;;;5082451;28;20050;-68
2021/04/01 03:07:40;;;;;;;18.92;8.25;;;11.30;1.00;;;;;;5087153;28;20059;-68
2021/04/01 03:10:10;;;;;;;15.13;7.50;;;11.20;1.00;;;;;;5086788;28;20126;-68
2021/04/01 03:12:37;;;;;;;16.60;7.68;;;11.20;1.00;;;;;;5083732;28;20055;-67
2021/04/01 03:15:06;;;;;;;14.75;8.40;;;11.20;1.00;;;;;;5084125;28;20040;-68
2021/04/01 03:17:34;;;;;;;12.68;7.45;;;11.20;1.00;;;;;;5088184;28;20524;-68
2021/04/01 03:20:00;;;;;;;15.75;8.30;;;11.10;1.00;;;;;;5085499;28;20040;-68
2021/04/01 03:22:27;;;;;;;21.08;8.45;;;11.00;1.00;;;;;;5085634;28;20044;-68
2021/04/01 03:24:54;;;;;;;13.38;7.85;;;11.00;1.00;;;;;;5083670;28;20059;-67
2021/04/01 03:27:22;;;;;;;19.00;8.55;;;10.90;1.00;;;;;;5087614;28;20067;-68
2021/04/01 03:30:03;;;;;;;12.85;7.95;;;10.90;1.00;;;;;;5087695;28;20474;-68
2021/04/01 03:32:30;;;;;;;11.32;8.27;;;10.90;1.00;;;;;;5084095;28;20071;-68
2021/04/01 03:34:57;;;;;;;18.55;8.65;;;10.90;1.00;;;;;;5084285;28;20445;-68
2021/04/01 03:37:24;;;;;;;15.20;7.95;;;10.90;1.00;;;;;;5086914;28;20558;-68
2021/04/01 03:39:52;;;;;;;18.48;8.57;;;10.80;1.00;;;;;;5086293;28;20044;-67
2021/04/01 03:42:19;;;;;;;12.43;8.18;;;10.90;1.00;;;;;;5084342;28;20490;-68
2021/04/01 03:44:47;;;;;;;15.45;8.65;;;10.80;1.00;;;;;;5083946;28;20051;-69
2021/04/01 03:47:14;;;;;;;17.75;9.38;;;10.90;1.00;;;;;;5086590;28;20098;-68
2021/04/01 03:49:41;;;;;;;23.17;8.65;;;10.80;1.00;;;;;;5087227;28;20078;-68
2021/04/01 03:52:08;;;;;;;10.60;7.65;;;10.70;1.00;;;;;;5084153;28;20044;-67
2021/04/01 03:54:35;;;;;;;15.00;9.25;;;10.70;1.00;;;;;;5082284;28;20093;-67
2021/04/01 03:57:03;;;;;;;12.75;7.60;;;10.60;1.00;;;;;;5087266;28;20050;-68
2021/04/01 03:59:37;;;;;;;16.83;8.90;;;10.60;1.00;;;;;;5087199;28;20050;-68
2021/04/01 04:02:15;;;;;;;14.88;8.15;;;10.60;1.00;;;;;;5083484;28;20054;-68
2021/04/01 04:04:53;;;;;;;14.80;7.95;;;10.50;1.00;;;;;;5084544;28;20044;-68
2021/04/01 04:10:20;;;;;;;13.30;8.35;;;10.40;1.00;;;;;;5089218;28;20048;-68
2021/04/01 04:15:31;;;;;;;12.88;8.52;;;10.50;1.00;;;;;;5084353;28;20053;-67
2021/04/01 04:17:58;;;;;;;17.95;8.88;;;10.40;1.00;;;;;;5087258;28;20048;-68
2021/04/01 04:20:25;;;;;;;17.08;8.40;;;10.40;1.00;;;;;;5085924;28;20044;-68
2021/04/01 04:22:52;;;;;;;15.40;8.98;;;10.40;1.00;;;;;;5080627;28;20055;-68
2021/04/01 04:25:20;;;;;;;17.90;8.77;;;10.30;1.00;;;;;;5085147;28;20417;-67
2021/04/01 04:28:00;;;;;;;14.27;9.23;;;10.40;1.00;;;;;;5085783;28;20052;-68
2021/04/01 04:30:28;;;;;;;12.30;8.65;;;10.50;1.00;;;;;;5086854;28;20048;-69
2021/04/01 04:32:56;;;;;;;16.05;8.70;;;10.50;1.00;;;;;;5081802;28;20052;-67
2021/04/01 04:35:28;;;;;;;18.77;8.57;;;10.50;1.00;;;;;;5084292;28;20052;-68
2021/04/01 04:37:56;;;;;;;13.77;7.95;;;10.50;1.00;;;;;;5086087;28;20051;-68
2021/04/01 04:40:23;;;;;;;16.33;7.68;;;10.50;1.00;;;;;;5087056;28;20392;-67
2021/04/01 04:42:50;;;;;;;12.75;7.57;;;10.50;1.00;;;;;;5082442;28;20496;-68
2021/04/01 04:45:17;;;;;;;12.48;8.00;;;10.40;1.00;;;;;;5085268;28;20054;-68
2021/04/01 04:47:43;;;;;;;14.60;8.77;;;10.40;1.00;;;;;;5085482;28;20127;-67
2021/04/01 04:50:11;;;;;;;17.15;8.02;;;10.40;1.00;;;;;;5087660;28;20040;-68
2021/04/01 04:52:39;;;;;;;14.55;7.68;;;10.40;1.00;;;;;;5082339;28;20048;-68
2021/04/01 04:55:10;;;;;;;15.73;7.88;;;10.40;1.00;;;;;;5082712;28;20071;-68
2021/04/01 04:57:44;;;;;;;13.02;7.60;;;10.30;1.00;;;;;;5084702;28;20413;-68
2021/04/01 05:09:50;;;;;;;18.55;8.80;;;10.00;1.00;;;;;;4987896;28;20053;-67
2021/04/01 05:12:17;;;;;;;16.85;8.43;;;10.10;1.00;;;;;;5010445;28;20052;-68
2021/04/01 05:14:44;;;;;;;21.10;8.45;;;10.10;1.00;;;;;;5012466;28;20064;-68
2021/04/01 05:17:14;;;;;;;14.32;8.20;;;10.20;1.00;;;;;;5012741;28;20371;-68
2021/04/01 05:19:41;;;;;;;19.23;8.68;;;10.40;1.00;;;;;;5016296;28;20426;-68
2021/04/01 05:22:12;;;;;;;15.10;8.27;;;10.70;1.00;;;;;;5013693;28;20180;-68
2021/04/01 05:24:39;;;;;;;16.98;8.32;;;11.00;1.00;;;;;;5011144;28;20419;-67
2021/04/01 05:27:17;;;;;;;14.73;8.00;;;11.50;1.00;;;;;;5010637;28;20495;-67
2021/04/01 05:29:58;;;;;;;17.00;8.02;;;11.60;1.00;;;;;;5011658;28;20046;-67
2021/04/01 05:32:25;;;;;;;13.02;7.55;;;11.80;1.00;;;;;;5009886;28;20184;-67
2021/04/01 05:34:52;;;;;;;21.30;8.27;;;11.50;1.00;;;;;;5013796;28;20061;-68
2021/04/01 05:37:20;;;;;;;14.90;8.35;;;11.30;1.00;;;;;;5011031;28;20053;-68
2021/04/01 05:39:49;;;;;;;22.70;9.13;;;11.30;1.00;;;;;;5013806;28;20045;-67
2021/04/01 05:42:20;;;;;;;27.70;8.43;;;11.30;1.00;;;;;;5010491;28;20103;-67
2021/04/01 05:44:50;;;;;;;20.63;8.98;;;11.40;1.00;;;;;;5011265;28;20132;-67
2021/04/01 05:47:25;;;;;;;22.98;9.10;;;11.40;1.00;;;;;;5010590;28;20049;-68
2021/04/01 05:50:03;;;;;;;24.95;8.27;;;11.50;1.00;;;;;;5015626;28;20053;-67
2021/04/01 05:58:26;;;;;;;20.13;9.45;;;11.70;1.00;;;;;;4981398;28;20042;-67
2021/04/01 06:01:23;;;;;;;19.75;8.88;;;11.90;1.00;;;;;;5013911;28;20125;-67
2021/04/01 06:03:56;;;;;;;21.40;8.38;;;12.00;1.00;;;;;;5008650;28;20415;-67
2021/04/01 06:06:30;;;;;;;21.83;8.35;;;12.00;1.00;;;;;;5012384;28;20490;-68
2021/04/01 06:09:00;;;;;;;15.32;8.00;;;12.30;1.00;;;;;;5010614;28;20045;-66
2021/04/01 06:11:28;;;;;;;13.68;7.82;;;12.20;1.00;;;;;;5011625;28;20060;-67
2021/04/01 06:14:08;;;;;;;19.40;7.22;;;12.20;1.00;;;;;;5007728;28;20056;-68
2021/04/01 06:16:39;;;;;;;13.32;8.32;;;12.40;1.00;;;;;;5012304;28;20046;-68
2021/04/01 06:19:09;;;;;;;18.15;8.43;;;12.50;1.00;;;;;;5009721;28;20097;-69
2021/04/01 06:21:42;;;;;;;14.75;7.72;;;12.70;1.00;;;;;;5010565;28;20055;-68
2021/04/01 06:24:25;;;;;;;17.50;7.93;;;12.90;1.00;;;;;;5010259;28;20124;-68
2021/04/01 06:26:57;;;;;;;18.70;8.13;;;12.70;1.00;;;;;;5010387;28;20928;-68
2021/04/01 06:29:27;;;;;;;15.65;8.30;;;12.70;1.00;;;;;;5011467;28;20042;-69
2021/04/01 06:31:57;;;;;;;19.05;8.70;;;12.70;1.00;;;;;;5008398;28;20056;-68
2021/04/01 06:34:32;;;;;;;21.80;8.77;;;12.70;1.00;;;;;;5007870;28;20046;-68
2021/04/01 06:36:59;;;;;;;19.85;9.27;;;12.80;1.00;;;;;;5009300;28;20407;-69
2021/04/01 06:39:26;;;;;;;16.77;9.68;;;12.70;1.00;;;;;;5014302;28;20080;-69
2021/04/01 06:42:03;;;;;;;20.30;8.82;;;12.70;1.00;;;;;;5009880;28;20559;-68
2021/04/01 06:44:34;;;;;;;17.25;8.80;;;12.90;1.00;;;;;;5009410;28;20053;-68
2021/04/01 06:47:08;;;;;;;17.38;8.07;;;12.90;1.00;;;;;;5009491;28;20057;-67
2021/04/01 06:49:54;;;;;;;26.08;9.05;;;12.90;1.00;;;;;;5011899;28;20058;-68
2021/04/01 06:52:25;;;;;;;26.55;9.15;;;13.10;1.00;;;;;;5009933;28;20061;-67
2021/04/01 06:54:59;;;;;;;20.20;8.88;;;13.10;1.00;;;;;;5010942;28;20054;-67
2021/04/01 06:57:36;;;;;;;19.92;8.93;;;13.10;1.00;;;;;;5009330;28;20050;-67
2021/04/01 07:00:44;;;;;;;18.67;8.98;;;13.10;1.00;;;;;;5010728;28;20065;-68
2021/04/01 07:03:21;;;;;;;40.55;9.82;;;13.40;1.00;;;;;;5006874;28;20057;-67
2021/04/01 07:05:52;;;;;;;20.73;9.05;;;13.50;1.00;;;;;;5011751;28;20049;-68
2021/04/01 07:08:32;;;;;;;19.65;7.82;;;13.50;1.00;;;;;;5008887;28;20120;-68
2021/04/01 07:11:02;;;;;;;17.45;8.82;;;13.50;1.00;;;;;;5013041;28;20524;-67
2021/04/01 07:13:34;;;;;;;15.05;8.45;;;13.80;1.00;;;;;;5004776;28;20150;-68
2021/04/01 07:16:20;;;;;;;18.15;8.80;;;13.70;1.00;;;;;;5012333;28;20530;-67
2021/04/01 07:44:42;;;;;;;23.25;9.07;;;15.00;1.00;;;;;;5009613;28;20491;-67
2021/04/01 07:47:27;;;;;;;20.83;8.63;;;15.10;1.00;;;;;;4960651;28;20048;-68
2021/04/01 07:49:56;;;;;;;18.65;8.40;;;15.60;1.00;;;;;;5010730;28;20447;-68
2021/04/01 07:52:25;;;;;;;17.83;8.70;;;15.70;1.00;;;;;;5009704;28;20264;-68
2021/04/01 07:55:06;;;;;;;19.88;9.40;;;15.90;1.00;;;;;;5008531;28;20054;-68
2021/04/01 08:00:28;;;;;;;19.52;8.23;;;16.00;1.00;;;;;;5004339;28;20521;-67
2021/04/01 08:05:44;;;;;;;18.60;8.60;;;16.30;1.00;;;;;;5010251;28;20056;-68
2021/04/01 08:08:12;;;;;;;16.90;8.98;;;16.40;1.00;;;;;;5008840;28;20058;-68
2021/04/01 08:10:42;;;;;;;16.92;9.05;;;16.60;1.00;;;;;;5011751;28;20045;-67
2021/04/01 08:13:14;;;;;;;21.42;8.38;;;17.00;1.00;;;;;;5007500;28;20087;-68
2021/04/01 08:15:46;;;;;;;21.73;8.48;;;16.90;1.00;;;;;;5007877;28;20050;-68
2021/04/01 08:18:21;;;;;;;22.20;9.35;;;17.20;1.00;;;;;;5008827;28;20044;-68
2021/04/01 08:20:54;;;;;;;20.67;8.80;;;17.30;1.00;;;;;;5009871;28;20058;-69
2021/04/01 08:23:44;;;;;;;18.02;8.23;;;17.40;1.00;;;;;;5006397;28;20061;-68
2021/04/01 08:26:44;;;;;;;17.98;8.93;;;17.70;1.00;;;;;;5008828;28;20042;-69
2021/04/01 08:33:09;;;;;;;20.08;8.35;;;17.90;1.00;;;;;;4941865;28;20061;-68
2021/04/01 08:35:58;;;;;;;15.75;7.72;;;18.10;1.00;;;;;;5013364;28;20072;-68
2021/04/01 08:38:46;;;;;;;16.98;8.65;;;18.00;1.00;;;;;;5010272;28;20132;-68
2021/04/01 08:42:17;;;;;;;16.80;9.00;;;18.10;1.00;;;;;;5007792;28;20530;-68
2021/04/01 08:45:48;;;;;;;13.77;8.13;;;18.50;1.00;;;;;;4934775;29;20235;-68
2021/04/01 08:48:56;;;;;;;14.60;8.43;;;18.80;1.00;;;;;;5013227;28;20046;-68
2021/04/01 08:51:43;;;;;;;19.80;8.38;;;18.70;1.00;;;;;;5013089;28;20148;-68
2021/04/01 08:54:15;;;;;;;14.02;7.15;;;19.20;1.00;;;;;;5014251;28;20460;-68
2021/04/01 08:56:56;;;;;;;19.83;7.05;;;19.20;1.00;;;;;;5010234;28;20046;-67
2021/04/01 08:59:26;;;;;;;11.68;6.93;;;19.40;1.00;;;;;;5014914;28;20187;-69
2021/04/01 09:01:59;;;;;;;11.90;6.30;;;19.30;1.00;;;;;;5011865;28;20081;-69
2021/04/01 09:04:29;;;;;;;19.10;7.57;;;19.30;1.00;;;;;;5010552;28;20422;-68
2021/04/01 09:07:02;;;;;;;17.02;5.93;;;19.30;1.00;;;;;;5011945;28;20053;-67
2021/04/01 09:09:33;;;;;;;11.75;6.53;;;19.10;1.00;;;;;;5014397;28;20510;-67
2021/04/01 09:12:15;;;;;;;15.38;6.45;;;18.90;1.00;;;;;;5009304;28;20112;-67
2021/04/01 09:14:48;;;;;;;14.20;5.72;;;18.90;1.00;;;;;;5012300;28;20050;-68
2021/04/01 09:17:18;;;;;;;15.52;5.88;;;18.90;1.00;;;;;;5011312;28;20514;-68
2021/04/01 09:19:47;;;;;;;15.77;5.75;;;19.00;1.00;;;;;;5016320;28;20495;-68
2021/04/01 09:22:20;;;;;;;13.02;5.68;;;19.30;1.00;;;;;;5011599;28;20056;-68
2021/04/01 09:24:53;;;;;;;12.68;5.28;;;19.30;1.00;;;;;;5009182;28;20045;-69
2021/04/01 09:27:20;;;;;;;11.25;5.38;;;19.40;1.00;;;;;;5008950;28;20052;-69
2021/04/01 09:29:48;;;;;;;13.85;5.50;;;19.20;1.00;;;;;;5014509;28;20053;-67
2021/04/01 09:32:15;;;;;;;9.48;4.70;;;18.90;1.00;;;;;;5012370;28;20056;-68
2021/04/01 09:34:48;;;;;;;14.68;4.47;;;19.10;1.00;;;;;;5010918;28;20050;-68
2021/04/01 09:37:17;;;;;;;8.50;4.15;;;19.50;1.00;;;;;;5012461;28;20048;-68
2021/04/01 09:39:45;;;;;;;12.57;4.35;;;19.70;1.00;;;;;;5013112;28;20049;-68
2021/04/01 09:42:13;;;;;;;9.15;4.38;;;19.90;1.00;;;;;;5011277;28;20054;-68
2021/04/01 09:44:50;;;;;;;9.48;4.45;;;19.90;1.00;;;;;;5009550;28;20050;-69
2021/04/01 09:47:27;;;;;;;18.67;5.03;;;20.20;1.00;;;;;;5008359;28;20055;-67
2021/04/01 09:50:01;;;;;;;7.53;3.67;;;20.10;1.00;;;;;;5012866;28;20046;-67
2021/04/01 09:52:29;;;;;;;8.40;4.80;;;20.20;1.00;;;;;;5011228;28;20057;-67
2021/04/01 09:54:59;;;;;;;11.85;3.80;;;20.00;1.00;;;;;;5009996;28;20054;-67
2021/04/01 09:57:42;;;;;;;8.05;3.97;;;20.30;1.00;;;;;;5010990;28;20050;-68
2021/04/01 10:00:26;;;;;;;9.02;3.65;;;20.60;1.00;;;;;;5012589;28;20042;-68
2021/04/01 10:03:08;;;;;;;6.43;3.15;;;20.80;1.00;;;;;;5011171;28;20057;-67
2021/04/01 10:05:40;;;;;;;8.10;3.53;;;20.90;1.00;;;;;;5012279;28;20062;-69
2021/04/01 10:08:11;;;;;;;7.85;3.85;;;20.70;1.00;;;;;;5011882;28;20121;-68
2021/04/01 10:10:42;;;;;;;9.15;3.92;;;20.40;1.00;;;;;;5011647;28;20060;-69
2021/04/01 10:13:20;;;;;;;8.30;3.50;;;20.30;1.00;;;;;;5011127;28;20095;-68
2021/04/01 10:15:48;;;;;;;11.70;4.45;;;20.50;1.00;;;;;;5008728;28;20045;-68
2021/04/01 10:18:18;;;;;;;9.65;3.67;;;20.80;1.00;;;;;;5012105;28;20042;-67
2021/04/01 10:20:56;;;;;;;10.05;3.60;;;21.10;1.00;;;;;;5008790;28;20166;-68
2021/04/01 10:23:23;;;;;;;12.75;3.53;;;21.10;1.00;;;;;;5003772;28;20841;-68
2021/04/01 10:26:06;;;;;;;7.28;4.03;;;20.90;1.00;;;;;;5007099;28;20042;-67
2021/04/01 10:28:40;;;;;;;12.82;3.95;;;21.10;1.00;;;;;;5012046;28;20046;-67
2021/04/01 10:31:14;;;;;;;6.68;3.40;;;21.40;1.00;;;;;;5009954;28;20058;-67
2021/04/01 10:34:13;;;;;;;8.95;4.13;;;21.60;1.00;;;;;;5008510;28;20071;-67
2021/04/01 10:36:42;;;;;;;9.80;4.57;;;21.40;1.00;;;;;;4979111;28;20053;-68
2021/04/01 10:39:11;;;;;;;10.57;3.40;;;21.40;1.00;;;;;;5010112;28;20054;-67
2021/04/01 10:41:50;;;;;;;8.25;3.15;;;21.80;1.00;;;;;;5011116;28;20776;-68
2021/04/01 10:44:18;;;;;;;7.20;3.60;;;21.80;1.00;;;;;;5006234;28;20054;-68
2021/04/01 10:46:52;;;;;;;8.23;3.63;;;21.90;1.00;;;;;;5009667;28;20048;-67
2021/04/01 10:49:24;;;;;;;7.10;3.80;;;22.10;1.00;;;;;;5012400;28;20045;-67
2021/04/01 10:51:53;;;;;;;5.90;3.10;;;21.90;1.00;;;;;;5009261;28;20658;-68
2021/04/01 10:54:23;;;;;;;6.93;2.83;;;22.00;1.00;;;;;;5008344;28;20042;-67
2021/04/01 10:56:54;;;;;;;5.30;2.97;;;22.10;1.00;;;;;;5008591;28;20046;-67
2021/04/01 10:59:37;;;;;;;4.75;2.70;;;22.10;1.00;;;;;;5013050;28;20081;-68
2021/04/01 11:02:13;;;;;;;7.37;2.93;;;22.50;1.00;;;;;;5006147;28;20061;-68
2021/04/01 11:04:43;;;;;;;5.80;2.47;;;22.40;1.00;;;;;;5002844;28;20050;-68
2021/04/01 11:07:10;;;;;;;9.57;3.60;;;22.20;1.00;;;;;;5007360;28;20503;-67
2021/04/01 11:09:40;;;;;;;12.45;3.35;;;22.20;1.00;;;;;;5010196;28;20058;-68
2021/04/01 11:12:15;;;;;;;5.47;2.75;;;22.50;1.00;;;;;;5005714;28;20050;-68
2021/04/01 11:14:48;;;;;;;6.90;2.30;;;22.30;1.00;;;;;;5008797;28;20045;-67
2021/04/01 11:17:17;;;;;;;7.50;3.15;;;22.50;1.00;;;;;;5008616;28;20059;-68
2021/04/01 11:19:46;;;;;;;10.20;3.42;;;22.50;1.00;;;;;;5007444;28;20046;-68
2021/04/01 11:22:13;;;;;;;13.43;3.25;;;22.10;1.00;;;;;;5007172;28;20068;-66
2021/04/01 11:24:40;;;;;;;6.68;2.92;;;22.50;1.00;;;;;;5002989;28;20057;-66
2021/04/01 11:27:09;;;;;;;7.15;2.95;;;22.80;1.00;;;;;;5006243;28;20043;-67
2021/04/01 11:29:37;;;;;;;6.28;3.30;;;22.80;1.00;;;;;;5008482;28;20431;-67
2021/04/01 11:32:16;;;;;;;7.30;3.10;;;22.70;1.00;;;;;;5007832;28;20526;-67
2021/04/01 11:34:44;;;;;;;6.45;2.78;;;22.90;1.00;;;;;;5004823;28;20046;-69
2021/04/01 11:37:16;;;;;;;8.35;2.92;;;23.00;1.00;;;;;;5005540;28;20046;-68
2021/04/01 11:39:44;;;;;;;9.63;2.35;;;22.70;1.00;;;;;;5008204;28;20053;-67
2021/04/01 11:42:12;;;;;;;6.65;2.50;;;22.90;1.00;;;;;;5007836;28;20090;-67
2021/04/01 11:44:41;;;;;;;4.38;2.50;;;22.90;1.00;;;;;;5001813;28;20053;-67
2021/04/01 11:47:18;;;;;;;9.38;2.97;;;23.20;1.00;;;;;;5007943;28;20057;-66
2021/04/01 11:49:47;;;;;;;5.20;2.63;;;23.40;1.00;;;;;;5009296;28;20046;-68
2021/04/01 11:52:15;;;;;;;4.13;2.42;;;23.30;1.00;;;;;;5004263;28;20045;-68
2021/04/01 11:54:43;;;;;;;7.53;2.80;;;23.00;1.00;;;;;;5004709;28;20083;-68
2021/04/01 11:57:26;;;;;;;6.55;2.90;;;23.20;1.00;;;;;;5006942;28;20495;-69
2021/04/01 12:00:01;;;;;;;6.50;2.50;;;23.30;1.00;;;;;;5007753;28;20064;-69
2021/04/01 12:02:31;;;;;;;8.23;2.97;;;23.30;1.00;;;;;;5004348;28;20522;-69
2021/04/01 12:05:01;;;;;;;5.28;3.28;;;23.10;1.00;;;;;;5006122;28;20042;-69
2021/04/01 12:07:30;;;;;;;7.03;2.63;;;23.10;1.00;;;;;;5003281;28;20042;-70
2021/04/01 12:09:57;;;;;;;6.30;2.47;;;23.20;1.00;;;;;;5006184;28;20046;-69
2021/04/01 12:12:29;;;;;;;8.02;2.80;;;23.70;1.00;;;;;;5004074;28;20511;-69
2021/04/01 12:14:57;;;;;;;7.38;2.50;;;23.80;1.00;;;;;;5004387;28;20494;-69
2021/04/01 12:17:31;;;;;;;7.82;2.50;;;23.80;1.00;;;;;;5004219;28;20072;-70
2021/04/01 12:19:59;;;;;;;8.75;2.60;;;23.80;1.00;;;;;;5006801;28;20042;-69
2021/04/01 12:22:35;;;;;;;3.35;2.40;;;23.10;1.00;;;;;;5004881;28;20057;-69
2021/04/01 12:25:05;;;;;;;3.83;2.80;;;23.70;1.00;;;;;;5000330;28;20058;-68
2021/04/01 12:27:32;;;;;;;6.38;2.72;;;23.60;1.00;;;;;;5004458;28;20079;-70
2021/04/01 12:30:01;;;;;;;4.72;2.90;;;23.60;1.00;;;;;;5003984;28;20060;-68
2021/04/01 12:32:30;;;;;;;8.15;3.25;;;23.60;1.00;;;;;;5007199;28;20108;-70
2021/04/01 12:35:08;;;;;;;5.53;2.78;;;23.80;1.00;;;;;;5000662;28;20057;-70
2021/04/01 12:37:36;;;;;;;10.23;3.00;;;23.60;1.00;;;;;;5001258;28;20053;-70
2021/04/01 12:40:12;;;;;;;8.38;2.60;;;23.80;1.00;;;;;;5005832;28;20046;-70
2021/04/01 12:42:39;;;;;;;4.28;2.50;;;23.80;1.00;;;;;;5007213;28;20058;-69
2021/04/01 12:45:22;;;;;;;4.80;2.45;;;24.30;1.00;;;;;;5001504;28;20046;-70
2021/04/01 12:48:05;;;;;;;4.65;2.67;;;24.20;1.00;;;;;;5002464;28;20144;-69
2021/04/01 12:50:33;;;;;;;9.52;2.72;;;24.30;1.00;;;;;;5006368;28;20760;-71
2021/04/01 12:53:00;;;;;;;3.22;2.30;;;24.80;1.00;;;;;;5003354;28;20068;-68
2021/04/01 12:55:37;;;;;;;14.68;2.65;;;24.50;1.00;;;;;;5000394;28;20503;-69
2021/04/01 12:58:07;;;;;;;5.30;2.53;;;24.00;1.00;;;;;;5003049;28;20120;-70
2021/04/01 13:00:45;;;;;;;7.78;2.30;;;23.70;1.00;;;;;;5001297;28;20416;-69
2021/04/01 13:03:12;;;;;;;5.05;2.78;;;24.30;1.00;;;;;;5005907;28;20054;-68
2021/04/01 13:05:42;;;;;;;4.57;2.80;;;24.00;1.00;;;;;;4997221;28;20741;-69
2021/04/01 13:08:25;;;;;;;10.82;2.90;;;23.70;1.00;;;;;;5009331;28;20048;-69
2021/04/01 13:10:53;;;;;;;6.27;2.80;;;23.90;1.00;;;;;;5007254;28;20434;-69
2021/04/01 13:13:20;;;;;;;6.97;2.97;;;24.00;1.00;;;;;;5005179;28;20299;-69
2021/04/01 13:15:49;;;;;;;4.55;2.80;;;24.40;1.00;;;;;;5000202;28;20224;-68
2021/04/01 13:18:16;;;;;;;6.32;2.97;;;24.00;1.00;;;;;;5004595;28;20537;-71
2021/04/01 13:20:44;;;;;;;8.60;2.78;;;24.00;1.00;;;;;;5006069;28;20053;-70
2021/04/01 13:23:24;;;;;;;5.13;2.58;;;23.90;1.00;;;;;;5003498;28;20131;-69
2021/04/01 13:25:54;;;;;;;9.10;3.42;;;23.70;1.00;;;;;;5002391;28;20084;-69
2021/04/01 13:28:22;;;;;;;7.22;3.03;;;23.50;1.00;;;;;;5002970;28;20053;-69
2021/04/01 13:31:00;;;;;;;10.75;3.35;;;23.60;1.00;;;;;;5007607;28;20062;-68
2021/04/01 13:33:43;;;;;;;16.27;3.50;;;23.60;1.00;;;;;;5000629;28;20073;-69
2021/04/01 13:36:17;;;;;;;11.07;3.95;;;23.50;1.00;;;;;;5007857;28;20977;-69
2021/04/01 13:38:44;;;;;;;6.97;3.65;;;23.60;1.00;;;;;;5006030;28;20082;-70
2021/04/01 13:41:14;;;;;;;11.95;3.95;;;23.40;1.00;;;;;;5010000;28;20050;-69
2021/04/01 13:43:43;;;;;;;9.63;3.38;;;23.40;1.00;;;;;;5006865;28;20057;-69
2021/04/01 13:46:10;;;;;;;6.60;3.65;;;23.30;1.00;;;;;;5009065;28;20065;-70
2021/04/01 13:48:39;;;;;;;9.48;3.30;;;23.10;1.00;;;;;;5008964;28;20042;-69
2021/04/01 13:51:10;;;;;;;6.68;2.90;;;23.40;1.00;;;;;;5008777;28;20057;-69
2021/04/01 13:54:10;;;;;;;9.48;4.07;;;23.30;1.00;;;;;;5005083;28;20053;-70
2021/04/01 13:56:43;;;;;;;5.72;3.22;;;23.10;1.00;;;;;;5006977;28;20484;-70
2021/04/01 14:10:16;;;;;;;6.57;3.63;;;23.00;1.00;;;;;;5008837;28;20054;-70
2021/04/01 14:12:49;;;;;;;7.28;3.67;;;23.00;1.00;;;;;;5009535;28;20439;-69
2021/04/01 14:15:19;;;;;;;12.77;4.03;;;23.00;1.00;;;;;;5005368;28;20155;-69
2021/04/01 14:17:49;;;;;;;7.40;3.75;;;23.00;1.00;;;;;;5012053;28;20088;-68
2021/04/01 14:20:17;;;;;;;10.77;3.17;;;22.90;1.00;;;;;;4994893;28;20052;-68